Aérodrome :
LOGIN :

S'inscrire | Disclaimer

   EN    FR    IT 

 










Légende :    VFR   VFR Marginal   IFR   IFR Intensif   IFR Très Intensif
Visi : 
Plafond : 
>= 8 km
>= 3000ft
5 à 8 km
1000 à 3000 ft
1500m à 5 km
500 à 1000 ft
800 à 1500m
200 à 500 ft
< 800m
< 200 ft
Symboles :   Orages  Brouillard  Fortes neiges  Fortes précipitations  Vent > 20 kt
SIGMETs :   Divers  Orages  Givrage  Turbulence  Onde Orograph.  Cendres Volcan.






- Altitude de l'aérodrome : 755 ft
- Code IATA : DRS


EDDC - Dresden Klotzsche

DERNIER METAR :
  • 270750Z 16004KT 9999 FEW012 17/16 Q1017 NOSIG

METARs EXPIRÉS :
  • 270720Z 14003KT 110V170 9999 FEW012 17/16 Q1017 NOSIG
  • 270650Z 16004KT 9999 FEW009 16/15 Q1018 NOSIG
  • 270620Z 20004KT 8000 FEW009 16/15 Q1018 TEMPO 4000 BR BKN008
  • 270550Z 18005KT 9999 SCT008 16/15 Q1018 TEMPO BKN008
  • 270520Z VRB02KT 9999 FEW010 16/15 Q1018 NOSIG

TAF COR TAF EDDC
Valide du 27 à 06h jusqu'au 28 à 06h UTC


270558Z 2706/2806 VRB03KT CAVOK
TEMPO 2706/2715 SHRA BKN008 BKN020CB
PROB40
TEMPO 2706/2709 0500 FG BKN002
BECMG 2712/2715 24005KT
BECMG 2803/2806 31005KT 4000 BR BKN012



MET'MAP, la Météo Aéronautique d'un coup d'oeil ! - Copyright ORBIFLY Décembre 2007 - Disclaimer

ORBIFLY MET'MAP TEAM :

Programmation & Développement : Alexandra Zaïnal
Sur une idée originale de : Baudouin d'Aumeries
Assistance à la programmation : Marc-Olivier Méhu
Soutien technique & logistique : Manuel Goepfert

Contact : metmap@orbifly.com




SOURCES & CREDITS :

   NOAA